フアン・サンタ・マリア国際空港の過去48時間の天気

フアン・サンタ・マリア国際空港 (Juan Santamaria)

現在時刻: 7/12 09:34 CST (7/12 15:34 UTC) 以下の時間は現地時間です。

過去48時間のMETAR気象情報
時間 風向 風速(m/s) 視程 気温(℃) 湿度(%) 気圧(hPa) 天気現象
12 09:00 不定 1 10km以上 25 69 1017
12 08:00 南南西 4 10km以上 23 78 1017
12 07:00 東北東 3 10km以上 22 73 1017
12 06:00 北北東 3 10km以上 21 78 1017
12 05:00 北東 2 10km以上 21 78 1016
12 04:00 3 10km以上 22 73 1016
12 03:00 東北東 4 10km以上 22 73 1016
12 02:00 不定 2 10km以上 22 73 1016
12 01:00 東北東 4 10km以上 22 73 1016
12 00:00 4 10km以上 23 69 1016
11 23:00 東北東 5 10km以上 23 73 1016
11 22:00 3 10km以上 23 73 1017
11 21:00 北北東 2 10km以上 22 88 1018
11 20:00 不定 1 10km以上 22 88 1018
11 19:00 静穏 0 10km以上 22 88 1018
11 18:00 南西 2 10km以上 22 88 1017
11 17:00 西南西 4 10km以上 23 89 1017
11 16:00 西 5 10km以上 24 78 1016
11 15:19 西南西 5 10km以上 25 69 1016
11 15:00 2 10km以上 26 65 1016
11 14:00 4 10km以上 26 58 1016
11 13:00 5 10km以上 26 58 1016
11 12:00 7 10km以上 27 54 1017
11 11:00 6 10km以上 27 51 1017
11 10:00 東南東 6 10km以上 26 61 1017
11 09:00 東南東 6 10km以上 26 65 1017
11 08:00 4 10km以上 22 83 1017
11 07:00 5 10km以上 19 94 1017 弱い雨
11 06:00 北東 4 10km以上 19 94 1018 弱い雨
11 05:00 静穏 0 10km以上 19 94 1017
11 04:00 2 10km以上 18 100 1016
11 03:00 2 10km以上 19 94 1017
11 02:00 不定 1 10km以上 19 94 1017
11 01:00 3 10km以上 19 88 1018
11 00:00 不定 1 10km以上 21 83 1018
10 23:00 東北東 3 10km以上 21 83 1019
10 22:00 3 10km以上 21 88 1018
10 21:00 東北東 2 10km以上 21 100 1018
10 20:00 北西 2 10km以上 21 100 1017 散在した霧
10 19:00 南西 2 8000m 21 100 1017 散在した霧
10 18:00 西北西 2 4000m 21 100 1017 もや
10 17:38 西 3 400m 21 100 1017 弱い雨 霧
10 17:29 西南西 3 5000m 21 100 1017 もや
10 17:00 西南西 3 10km以上 22 100 1017 周辺で霧
10 16:00 西南西 5 10km以上 22 100 1016 周辺で霧
10 15:00 西南西 2 10km以上 23 100 1016 周辺でしゅう雨
10 14:49 不定 2 10km以上 21 100 1016 弱い雷雨
10 14:27 西 4 8000m 23 100 1016 雷雨
10 14:00 西南西 5 10km以上 25 83 1016
MROC 121500Z VRB02KT CAVOK 25/19 A3003 NOSIG
MROC 121400Z 21008KT CAVOK 23/19 A3004 NOSIG
MROC 121300Z 07005KT 030V130 CAVOK 22/17 A3003 NOSIG
MROC 121200Z 03006KT CAVOK 21/17 A3002 NOSIG
MROC 121100Z 05004KT 360V100 CAVOK 21/17 A3001 NOSIG
MROC 121000Z 08005KT 040V110 CAVOK 22/17 A3000 NOSIG
MROC 120900Z 07008KT 050V120 CAVOK 22/17 A3000 NOSIG
MROC 120800Z VRB03KT CAVOK 22/17 A3001 NOSIG
MROC 120700Z 06008KT 030V090 CAVOK 22/17 A3001 NOSIG
MROC 120600Z 09008KT 060V140 CAVOK 23/17 A3000 NOSIG
MROC 120500Z 07010KT CAVOK 23/18 A3001 NOSIG
MROC 120400Z 08006KT 060V130 CAVOK 23/18 A3004 NOSIG
MROC 120300Z 02004KT 9999 FEW035 BKN130 22/20 A3005 NOSIG
MROC 120200Z VRB02KT 9999 FEW030 BKN130 22/20 A3005 NOSIG
MROC 120100Z 00000KT 9999 SCT015 BKN130 22/20 A3005 NOSIG
MROC 120000Z 23004KT 9999 FEW008 BKN160 22/20 A3003 NOSIG
MROC 112300Z 25007KT 9999 FEW015 BKN140 23/21 A3002 NOSIG
MROC 112200Z 27009KT 9999 FEW030 SCT140 24/20 A3000 NOSIG
MROC 112119Z 25009KT 9999 FEW040 SCT140 BKN200 25/19 A2999 NOSIG
MROC 112100Z 19004KT 120V270 9999 FEW045 BKN200 26/19 A2999 NOSIG
MROC 112000Z 09007KT 9999 FEW040 SCT120 BKN200 26/17 A3000 NOSIG
MROC 111900Z 09010KT 9999 FEW040 SCT120 BKN200 26/17 A3001 NOSIG
MROC 111800Z 09014KT 060V120 9999 FEW035 BKN200 27/17 A3002 NOSIG
MROC 111700Z 08012G22KT 050V110 9999 FEW035 SCT120 BKN200 27/16 A3004 NOSIG
MROC 111600Z 11011KT 080V140 9999 FEW045 SCT120 BKN200 26/18 A3003 NOSIG
MROC 111500Z 11012KT 070V150 CAVOK 26/19 A3002 NOSIG
MROC 111400Z 09008KT CAVOK 22/19 A3002 NOSIG
MROC 111300Z 09010KT 9999 -RA FEW045 BKN100 19/18 A3004 NOSIG
MROC 111200Z 05008KT 9999 -RA NSC 19/18 A3006 NOSIG
MROC 111100Z 00000KT 9999 FEW045 BKN080 19/18 A3004 NOSIG
MROC 111000Z 09003KT 070V180 CAVOK 18/18 A3001 NOSIG
MROC 110900Z 01004KT CAVOK 19/18 A3004 NOSIG
MROC 110800Z VRB01KT 9999 FEW045 SCT100 19/18 A3004 NOSIG
MROC 110700Z 08006KT CAVOK 19/17 A3005 NOSIG
MROC 110600Z VRB02KT CAVOK 21/18 A3007 NOSIG
MROC 110500Z 06006KT 040V110 CAVOK 21/18 A3008 NOSIG
MROC 110400Z 09006KT 070V130 CAVOK 21/19 A3007 NOSIG
MROC 110300Z 07003KT 9999 010V120 9999 FEW002 SCT040 21/21 A3006 NOSIG
MROC 110200Z 31003KT 270V350 9999 4000SW BCFG FEW010 BKN060 21/21 A3004 NOSIG
MROC 110100Z 23003KT 8000 2000SW BCFG FEW003 SCT015 BKN030 21/21 A3004 NOSIG
MROC 110000Z 29003KT 210V340 4000 1800SW BR SCT002 BKN015 21/21 A3004 NOSIG
MROC 102338Z 27006KT 0400 R07/0600U -RA FG SCT004 BKN010 21/21 A3003 NOSIG
MROC 102329Z 25006KT 220V280 5000 1200SW R07/0550D BR FEW005 SCT004 BKN020 21/21 A3003 TEMPO 3000
MROC 102300Z 25005KT 9999 VCFG FEW005 SCT015 BKN090 22/22 A3002 NOSIG
MROC 102200Z 24009KT 9999 VCFG FEW010 SCT120 22/22 A3001 NOSIG
MROC 102100Z 24004KT 180V320 9999 VCSH FEW006 FEW015TCU SCT060 23/23 A2999 NOSIG
MROC 102049Z VRB04KT 9999 -TSRA FEW007 FEW015CB SCT060 21/21 A2999 NOSIG
MROC 102027Z 26008KT 8000 3500N TSRA FEW015CB OVC030 23/23 A2999 NOSIG
MROC 102000Z 25009KT 210V280 9999 RA SCT020 25/22 A3000 NOSIG